CheckWX is a tool to help pilots better visualize weather data.  It is not intended as a substitute for an official pre-flight weather briefing.

19:19:33 UTC

KAJR METAR
Habersham County Airport
Cornelia, Georgia, USA
Current

25 mins ago

KAJR 191855Z AUTO 27009KT 10SM SCT034 28/19 A2986 RMK AO2 T02780189
Observed
Jun-19 @ 18:55 UTC
Wind
  • 270° at 9 KTS
Visibility
10 SM
Flight Rules
VFR
Cloud Levels
  • Scattered at 3,400' AGL
Temperature
28°C / 82°F
Dewpoint
19°C / 66°F
Heat Index
29°C / 84°F
Humidity
58%
Altimeter
29.86" Hg
Pressure
1011.22 hPa
Previous

45 mins ago

KAJR 191835Z AUTO 28008G14KT 10SM SCT034 SCT043 SCT110 28/18 A2987 RMK AO2 T02760183
Observed
Jun-19 @ 18:35 UTC
Wind
  • 280° at 8 KTS
  • Gusting to 14 KTS
Visibility
10 SM
Flight Rules
VFR
Cloud Levels
  • Scattered at 3,400' AGL
  • Scattered at 4,300' AGL
  • Scattered at 11,000' AGL
Temperature
28°C / 82°F
Dewpoint
18°C / 64°F
Heat Index
29°C / 84°F
Humidity
55%
Altimeter
29.87" Hg
Pressure
1011.52 hPa
Previous

1 hour ago

KAJR 191815Z AUTO 29009G14KT 10SM SCT030 BKN038 BKN043 27/19 A2988 RMK AO2 T02730190
Observed
Jun-19 @ 18:15 UTC
Wind
  • 290° at 9 KTS
  • Gusting to 14 KTS
Visibility
10 SM
Flight Rules
VFR
Cloud Levels
  • Scattered at 3,000' AGL
  • Broken at 3,800' AGL
  • Broken at 4,300' AGL
Temperature
27°C / 81°F
Dewpoint
19°C / 66°F
Heat Index
28°C / 83°F
Humidity
62%
Altimeter
29.88" Hg
Pressure
1011.82 hPa